createdAt,value
2018-06-03T00:00:13.419Z,18.79
2018-06-03T00:00:44.588Z,18.76
2018-06-03T00:01:15.807Z,18.76
2018-06-03T00:01:46.987Z,18.76
2018-06-03T00:02:18.168Z,18.76
2018-06-03T00:02:49.329Z,18.74
2018-06-03T00:03:20.537Z,18.72
2018-06-03T00:03:51.705Z,18.71
2018-06-03T00:04:22.869Z,18.71
2018-06-03T00:04:54.033Z,18.71
2018-06-03T00:05:25.213Z,18.72
2018-06-03T00:05:56.388Z,18.73
2018-06-03T00:06:27.553Z,18.71
2018-06-03T00:06:58.726Z,18.66
2018-06-03T00:07:29.949Z,18.54
2018-06-03T00:08:01.121Z,18.52
2018-06-03T00:08:32.321Z,18.54
2018-06-03T00:09:03.482Z,18.55
2018-06-03T00:09:35.258Z,18.57
2018-06-03T00:10:08.425Z,18.58
2018-06-03T00:10:39.613Z,18.58
2018-06-03T00:11:10.842Z,18.61
2018-06-03T00:11:42.019Z,18.62
2018-06-03T00:12:13.234Z,18.62
2018-06-03T00:12:44.405Z,18.62
2018-06-03T00:13:15.582Z,18.61
2018-06-03T00:13:46.845Z,18.62
2018-06-03T00:14:18.079Z,18.61
2018-06-03T00:14:49.313Z,18.61
2018-06-03T00:15:20.561Z,18.60
2018-06-03T00:15:51.744Z,18.59
2018-06-03T00:16:22.908Z,18.60
2018-06-03T00:16:54.178Z,18.61
2018-06-03T00:17:25.451Z,18.60
2018-06-03T00:17:56.680Z,18.58
2018-06-03T00:18:27.862Z,18.61
2018-06-03T00:18:59.037Z,18.63
2018-06-03T00:19:30.197Z,18.62
2018-06-03T00:20:01.421Z,18.63
2018-06-03T00:20:32.593Z,18.64
2018-06-03T00:21:03.762Z,18.65
2018-06-03T00:21:34.926Z,18.67
2018-06-03T00:22:06.157Z,18.71
2018-06-03T00:22:37.390Z,18.73
2018-06-03T00:23:08.625Z,18.73
2018-06-03T00:23:39.812Z,18.74
2018-06-03T00:24:11.038Z,18.74
2018-06-03T00:24:42.274Z,18.74
2018-06-03T00:25:13.498Z,18.72
2018-06-03T00:25:44.662Z,18.72
2018-06-03T00:26:15.932Z,18.74
2018-06-03T00:26:47.165Z,18.72
2018-06-03T00:27:18.389Z,18.74
2018-06-03T00:27:49.564Z,18.75
2018-06-03T00:28:20.741Z,18.74
2018-06-03T00:28:51.917Z,18.75
2018-06-03T00:29:23.139Z,18.77
2018-06-03T00:29:54.317Z,18.79
2018-06-03T00:30:25.543Z,18.77
2018-06-03T00:30:56.708Z,18.77
2018-06-03T00:31:27.889Z,18.74
2018-06-03T00:31:59.073Z,18.70
2018-06-03T00:32:30.249Z,18.68
2018-06-03T00:33:01.425Z,18.68
2018-06-03T00:33:32.599Z,18.66
2018-06-03T00:34:03.776Z,18.65
2018-06-03T00:34:34.994Z,18.62
2018-06-03T00:35:06.230Z,18.59
2018-06-03T00:35:37.412Z,18.58
2018-06-03T00:36:08.587Z,18.53
2018-06-03T00:36:39.754Z,18.50
2018-06-03T00:37:10.986Z,18.49
2018-06-03T00:37:42.220Z,18.47
2018-06-03T00:38:13.396Z,18.44
2018-06-03T00:38:44.553Z,18.44
2018-06-03T00:39:15.781Z,18.42
2018-06-03T00:39:46.955Z,18.42
2018-06-03T00:40:18.147Z,18.42
2018-06-03T00:40:49.313Z,18.42
2018-06-03T00:41:20.485Z,18.41
2018-06-03T00:41:51.658Z,18.40
2018-06-03T00:42:22.833Z,18.37
2018-06-03T00:42:54.006Z,18.35
2018-06-03T00:43:25.233Z,18.34
2018-06-03T00:43:56.412Z,18.34
2018-06-03T00:44:27.584Z,18.31
2018-06-03T00:44:58.749Z,18.34
2018-06-03T00:45:29.928Z,18.35
2018-06-03T00:46:01.103Z,18.34
2018-06-03T00:46:32.268Z,18.36
2018-06-03T00:47:03.522Z,18.34
2018-06-03T00:47:34.713Z,18.35
2018-06-03T00:48:05.933Z,18.37
2018-06-03T00:48:37.110Z,18.36
2018-06-03T00:49:08.280Z,18.37
2018-06-03T00:49:39.506Z,18.40
2018-06-03T00:50:10.688Z,18.39
2018-06-03T00:50:41.853Z,18.38
2018-06-03T00:51:13.073Z,18.34
2018-06-03T00:51:44.250Z,18.36
2018-06-03T00:52:15.417Z,18.36
2018-06-03T00:52:46.629Z,18.33
2018-06-03T00:53:17.930Z,18.33
2018-06-03T00:53:49.106Z,18.33
2018-06-03T00:54:20.325Z,18.31
2018-06-03T00:54:51.558Z,18.32
2018-06-03T00:55:22.736Z,18.31
2018-06-03T00:55:53.905Z,18.29
2018-06-03T00:56:25.073Z,18.29
2018-06-03T00:56:56.246Z,18.28
2018-06-03T00:57:27.409Z,18.29
2018-06-03T00:57:58.669Z,18.25
2018-06-03T00:58:29.849Z,18.18
2018-06-03T00:59:01.017Z,18.15
2018-06-03T00:59:32.184Z,18.14
2018-06-03T01:00:03.357Z,18.11
2018-06-03T01:00:34.521Z,18.11
2018-06-03T01:01:05.692Z,18.11
2018-06-03T01:01:36.913Z,18.12
2018-06-03T01:02:08.092Z,18.12
2018-06-03T01:02:39.260Z,18.16
2018-06-03T01:03:10.525Z,18.22
2018-06-03T01:03:41.706Z,18.27
2018-06-03T01:04:12.873Z,18.30
2018-06-03T01:04:44.039Z,18.30
2018-06-03T01:05:15.218Z,18.31
2018-06-03T01:05:46.390Z,18.32
2018-06-03T01:06:17.568Z,18.32
2018-06-03T01:06:48.836Z,18.33
2018-06-03T01:07:20.009Z,18.34
2018-06-03T01:07:51.241Z,18.31
2018-06-03T01:08:22.425Z,18.30
2018-06-03T01:08:53.591Z,18.29
2018-06-03T01:09:24.762Z,18.28
2018-06-03T01:09:55.938Z,18.30
2018-06-03T01:10:27.104Z,18.29
2018-06-03T01:10:58.277Z,18.29
2018-06-03T01:11:29.445Z,18.30
2018-06-03T01:12:00.698Z,18.24
2018-06-03T01:12:31.882Z,18.20
2018-06-03T01:13:03.053Z,18.17
2018-06-03T01:13:34.265Z,18.16
2018-06-03T01:14:05.453Z,18.14
2018-06-03T01:14:36.623Z,18.16
2018-06-03T01:15:07.847Z,18.11
2018-06-03T01:15:39.018Z,18.10
2018-06-03T01:16:10.246Z,18.07
2018-06-03T01:16:41.420Z,18.05
2018-06-03T01:17:12.590Z,18.01
2018-06-03T01:17:43.761Z,17.99
2018-06-03T01:18:14.930Z,17.98
2018-06-03T01:18:46.097Z,17.99
2018-06-03T01:19:17.272Z,17.94
2018-06-03T01:19:48.489Z,17.94
2018-06-03T01:20:19.665Z,17.94
2018-06-03T01:20:50.848Z,17.94
2018-06-03T01:21:22.065Z,17.92
2018-06-03T01:21:53.254Z,17.94
2018-06-03T01:22:24.437Z,17.95
2018-06-03T01:22:55.604Z,17.96
2018-06-03T01:23:26.842Z,17.94
2018-06-03T01:23:58.080Z,17.95
2018-06-03T01:24:29.263Z,17.95
2018-06-03T01:25:00.428Z,17.94
2018-06-03T01:25:31.613Z,17.91
2018-06-03T01:26:02.785Z,17.90
2018-06-03T01:26:34.001Z,17.87
2018-06-03T01:27:05.181Z,17.88
2018-06-03T01:27:36.345Z,17.88
2018-06-03T01:28:07.517Z,17.89
2018-06-03T01:28:38.685Z,17.88
2018-06-03T01:29:09.861Z,17.87
2018-06-03T01:29:41.032Z,17.87
2018-06-03T01:30:12.222Z,17.87
2018-06-03T01:30:43.445Z,17.83
2018-06-03T01:31:14.633Z,17.82
2018-06-03T01:31:45.933Z,17.81
2018-06-03T01:32:17.121Z,17.80
2018-06-03T01:32:48.655Z,17.79
2018-06-03T01:33:19.821Z,17.78
2018-06-03T01:33:50.990Z,17.77
2018-06-03T01:34:22.161Z,17.79
2018-06-03T01:34:53.340Z,17.80
2018-06-03T01:35:24.506Z,17.79
2018-06-03T01:35:55.728Z,17.79
2018-06-03T01:36:26.954Z,17.79
2018-06-03T01:36:58.177Z,17.81
2018-06-03T01:37:29.357Z,17.80
2018-06-03T01:38:00.622Z,17.83
2018-06-03T01:38:31.857Z,17.88
2018-06-03T01:39:03.040Z,17.91
2018-06-03T01:39:34.217Z,17.94
2018-06-03T01:40:05.380Z,17.95
2018-06-03T01:40:36.551Z,17.97
2018-06-03T01:41:07.721Z,18.00
2018-06-03T01:41:38.895Z,18.03
2018-06-03T01:42:10.064Z,18.05
2018-06-03T01:42:41.277Z,18.07
2018-06-03T01:43:12.553Z,18.10
2018-06-03T01:43:43.792Z,18.13
2018-06-03T01:44:14.976Z,18.15
2018-06-03T01:44:46.198Z,18.18
2018-06-03T01:45:17.372Z,18.20
2018-06-03T01:45:48.542Z,18.22
2018-06-03T01:46:19.716Z,18.23
2018-06-03T01:46:50.881Z,18.23
2018-06-03T01:47:22.049Z,18.23
2018-06-03T01:47:53.212Z,18.18
2018-06-03T01:48:24.467Z,18.15
2018-06-03T01:48:55.641Z,18.15
2018-06-03T01:49:26.866Z,18.16
2018-06-03T01:49:58.041Z,18.18
2018-06-03T01:50:29.255Z,18.19
2018-06-03T01:51:00.478Z,18.20
2018-06-03T01:51:31.648Z,18.21
2018-06-03T01:52:02.813Z,18.23
2018-06-03T01:52:33.977Z,18.26
2018-06-03T01:53:05.150Z,18.26
2018-06-03T01:53:36.312Z,18.21
2018-06-03T01:54:07.481Z,18.13
2018-06-03T01:54:38.737Z,18.05
2018-06-03T01:55:09.918Z,18.04
2018-06-03T01:55:41.145Z,18.03
2018-06-03T01:56:12.410Z,17.97
2018-06-03T01:56:43.634Z,17.91
2018-06-03T01:57:14.812Z,17.86
2018-06-03T01:57:45.977Z,17.87
2018-06-03T01:58:17.153Z,17.94
2018-06-03T01:58:48.375Z,17.97
2018-06-03T01:59:20.310Z,18.01
2018-06-03T01:59:51.541Z,18.04
2018-06-03T02:00:22.726Z,18.04
2018-06-03T02:00:53.895Z,18.05
2018-06-03T02:01:25.103Z,18.03
2018-06-03T02:01:56.330Z,18.04
2018-06-03T02:02:27.521Z,18.03
2018-06-03T02:02:58.745Z,17.99
2018-06-03T02:03:29.912Z,17.95
2018-06-03T02:04:01.128Z,17.97
2018-06-03T02:04:32.393Z,18.01
2018-06-03T02:05:03.626Z,18.06
2018-06-03T02:05:34.858Z,18.10
2018-06-03T02:06:06.069Z,18.11
2018-06-03T02:06:37.237Z,18.15
2018-06-03T02:07:08.407Z,18.19
2018-06-03T02:07:39.585Z,18.20
2018-06-03T02:08:10.806Z,18.23
2018-06-03T02:08:42.029Z,18.23
2018-06-03T02:09:13.206Z,18.25
2018-06-03T02:09:44.373Z,18.26
2018-06-03T02:10:15.538Z,18.26
2018-06-03T02:10:46.761Z,18.28
2018-06-03T02:11:17.932Z,18.28
2018-06-03T02:11:49.189Z,18.28
2018-06-03T02:12:20.420Z,18.27
2018-06-03T02:12:51.601Z,18.28
2018-06-03T02:13:22.761Z,18.31
2018-06-03T02:13:53.928Z,18.29
2018-06-03T02:14:25.145Z,18.31
2018-06-03T02:14:56.321Z,18.28
2018-06-03T02:15:27.545Z,18.25
2018-06-03T02:15:58.717Z,18.17
2018-06-03T02:16:29.881Z,18.13
2018-06-03T02:17:01.046Z,18.09
2018-06-03T02:17:32.216Z,18.03
2018-06-03T02:18:03.381Z,17.99
2018-06-03T02:18:34.545Z,17.96
2018-06-03T02:19:05.708Z,17.95
2018-06-03T02:19:36.936Z,17.91
2018-06-03T02:20:08.235Z,17.88
2018-06-03T02:20:39.461Z,17.88
2018-06-03T02:21:10.691Z,17.88
2018-06-03T02:21:41.923Z,17.87
2018-06-03T02:22:13.163Z,17.87
2018-06-03T02:22:44.391Z,17.84
2018-06-03T02:23:15.579Z,17.83
2018-06-03T02:23:46.745Z,17.81
2018-06-03T02:24:17.912Z,17.79
2018-06-03T02:24:49.081Z,17.77
2018-06-03T02:25:20.276Z,17.73
2018-06-03T02:25:51.444Z,17.67
2018-06-03T02:26:22.674Z,17.65
2018-06-03T02:26:53.860Z,17.63
2018-06-03T02:27:25.087Z,17.62
2018-06-03T02:27:56.269Z,17.63
2018-06-03T02:28:27.442Z,17.60
2018-06-03T02:28:58.654Z,17.60
2018-06-03T02:29:29.816Z,17.60
2018-06-03T02:30:01.038Z,17.59
2018-06-03T02:30:32.285Z,17.56
2018-06-03T02:31:03.461Z,17.54
2018-06-03T02:31:34.683Z,17.54
2018-06-03T02:32:05.861Z,17.52
2018-06-03T02:32:37.118Z,17.51
2018-06-03T02:33:08.288Z,17.52
2018-06-03T02:33:39.518Z,17.53
2018-06-03T02:34:10.742Z,17.55
2018-06-03T02:34:41.912Z,17.56
2018-06-03T02:35:13.094Z,17.56
2018-06-03T02:35:44.266Z,17.60
2018-06-03T02:36:15.441Z,17.59
2018-06-03T02:36:46.704Z,17.57
2018-06-03T02:37:17.951Z,17.52
2018-06-03T02:37:49.137Z,17.55
2018-06-03T02:38:20.354Z,17.54
2018-06-03T02:38:51.538Z,17.54
2018-06-03T02:39:22.710Z,17.56
2018-06-03T02:39:53.925Z,17.57
2018-06-03T02:40:25.139Z,17.57
2018-06-03T02:40:56.310Z,17.59
2018-06-03T02:41:27.533Z,17.59
2018-06-03T02:41:58.718Z,17.60
2018-06-03T02:42:29.948Z,17.62
2018-06-03T02:43:01.169Z,17.64
2018-06-03T02:43:32.397Z,17.62
2018-06-03T02:44:03.621Z,17.63
2018-06-03T02:44:34.841Z,17.63
2018-06-03T02:45:06.078Z,17.62
2018-06-03T02:45:37.258Z,17.61
2018-06-03T02:46:08.446Z,17.59
2018-06-03T02:46:39.673Z,17.59
2018-06-03T02:47:10.909Z,17.57
2018-06-03T02:47:42.085Z,17.56
2018-06-03T02:48:13.350Z,17.55
2018-06-03T02:48:44.520Z,17.56
2018-06-03T02:49:15.741Z,17.57
2018-06-03T02:49:46.928Z,17.58
2018-06-03T02:50:18.099Z,17.59
2018-06-03T02:50:49.370Z,17.57
2018-06-03T02:51:20.547Z,17.57
2018-06-03T02:51:51.767Z,17.57
2018-06-03T02:52:22.996Z,17.49
2018-06-03T02:52:54.179Z,17.41
2018-06-03T02:53:25.353Z,17.37
2018-06-03T02:53:56.586Z,17.35
2018-06-03T02:54:27.775Z,17.34
2018-06-03T02:54:59.000Z,17.35
2018-06-03T02:55:30.192Z,17.33
2018-06-03T02:56:01.458Z,17.33
2018-06-03T02:56:32.700Z,17.32
2018-06-03T02:57:03.998Z,17.29
2018-06-03T02:57:35.180Z,17.29
2018-06-03T02:58:06.349Z,17.27
2018-06-03T02:58:37.585Z,17.28
2018-06-03T02:59:08.759Z,17.28
2018-06-03T02:59:39.924Z,17.26
2018-06-03T03:00:11.096Z,17.26
2018-06-03T03:00:42.318Z,17.27
2018-06-03T03:01:13.520Z,17.29
2018-06-03T03:01:44.738Z,17.31
2018-06-03T03:02:15.918Z,17.34
2018-06-03T03:02:47.082Z,17.36
2018-06-03T03:03:18.255Z,17.41
2018-06-03T03:03:49.474Z,17.43
2018-06-03T03:04:20.662Z,17.46
2018-06-03T03:04:51.833Z,17.48
2018-06-03T03:05:23.056Z,17.50
2018-06-03T03:05:54.350Z,17.50
2018-06-03T03:06:25.536Z,17.54
2018-06-03T03:06:56.703Z,17.54
2018-06-03T03:07:27.877Z,17.57
2018-06-03T03:07:59.045Z,17.60
2018-06-03T03:08:30.208Z,17.64
2018-06-03T03:09:01.439Z,17.70
2018-06-03T03:09:32.640Z,17.74
2018-06-03T03:10:03.812Z,17.80
2018-06-03T03:10:34.988Z,17.86
2018-06-03T03:11:06.210Z,17.89
2018-06-03T03:11:37.377Z,17.93
2018-06-03T03:12:08.545Z,17.98
2018-06-03T03:12:39.773Z,18.05
2018-06-03T03:13:10.950Z,18.11
2018-06-03T03:13:42.173Z,18.16
2018-06-03T03:14:13.402Z,18.23
2018-06-03T03:14:44.586Z,18.29
2018-06-03T03:15:15.813Z,18.34
2018-06-03T03:15:47.050Z,18.36
2018-06-03T03:16:18.225Z,18.40
2018-06-03T03:16:49.398Z,18.43
2018-06-03T03:17:20.617Z,18.52
2018-06-03T03:17:51.798Z,18.60
2018-06-03T03:18:23.013Z,18.67
2018-06-03T03:18:54.180Z,18.78
2018-06-03T03:19:25.403Z,18.88
2018-06-03T03:19:56.580Z,18.99
2018-06-03T03:20:27.793Z,19.10
2018-06-03T03:20:58.983Z,19.20
2018-06-03T03:21:30.203Z,19.30
2018-06-03T03:22:01.434Z,19.40
2018-06-03T03:22:32.662Z,19.50
2018-06-03T03:23:03.837Z,19.59
2018-06-03T03:23:35.095Z,19.69
2018-06-03T03:24:06.267Z,19.80
2018-06-03T03:24:37.490Z,19.90
2018-06-03T03:25:08.725Z,20.00
2018-06-03T03:25:39.947Z,20.14
2018-06-03T03:26:11.130Z,20.26
2018-06-03T03:26:42.305Z,20.35
2018-06-03T03:27:13.469Z,20.37
2018-06-03T03:27:44.685Z,20.42
2018-06-03T03:28:15.861Z,20.48
2018-06-03T03:28:47.093Z,20.51
2018-06-03T03:29:18.277Z,20.54
2018-06-03T03:29:49.505Z,20.57
2018-06-03T03:30:20.684Z,20.63
2018-06-03T03:30:51.907Z,20.65
2018-06-03T03:31:23.126Z,20.73
2018-06-03T03:31:54.321Z,20.83
2018-06-03T03:32:25.497Z,20.93
2018-06-03T03:32:56.735Z,21.05
2018-06-03T03:33:27.921Z,21.18
2018-06-03T03:33:59.099Z,21.28
2018-06-03T03:34:30.329Z,21.28
2018-06-03T03:35:01.511Z,21.28
2018-06-03T03:35:32.749Z,21.27
2018-06-03T03:36:03.983Z,21.22
2018-06-03T03:36:35.161Z,21.31
2018-06-03T03:37:06.430Z,21.44
2018-06-03T03:37:37.687Z,21.56
2018-06-03T03:38:08.885Z,21.71
2018-06-03T03:38:40.055Z,21.83
2018-06-03T03:39:11.329Z,21.99
2018-06-03T03:39:42.505Z,22.13
2018-06-03T03:40:13.692Z,22.27
2018-06-03T03:40:44.872Z,22.44
2018-06-03T03:41:16.050Z,22.58
2018-06-03T03:41:47.225Z,22.66
2018-06-03T03:42:18.445Z,22.66
2018-06-03T03:42:49.621Z,22.68
2018-06-03T03:43:20.793Z,22.77
2018-06-03T03:43:51.972Z,22.90
2018-06-03T03:44:23.198Z,22.99
2018-06-03T03:44:54.384Z,23.05
2018-06-03T03:45:25.565Z,23.15
2018-06-03T03:45:56.797Z,23.14
2018-06-03T03:46:27.988Z,23.11
2018-06-03T03:46:59.255Z,23.20
2018-06-03T03:47:30.437Z,23.33
2018-06-03T03:48:01.608Z,23.47
2018-06-03T03:48:32.781Z,23.62
2018-06-03T03:49:04.006Z,23.75
2018-06-03T03:49:35.239Z,23.88
2018-06-03T03:50:06.421Z,23.99
2018-06-03T03:50:37.590Z,24.06
2018-06-03T03:51:08.756Z,24.19
2018-06-03T03:51:39.931Z,24.26
2018-06-03T03:52:11.181Z,24.37
2018-06-03T03:52:42.369Z,24.47
2018-06-03T03:53:13.533Z,24.59
2018-06-03T03:53:44.739Z,24.68
2018-06-03T03:54:15.917Z,24.69
2018-06-03T03:54:47.130Z,24.67
2018-06-03T03:55:18.306Z,24.49
2018-06-03T03:55:49.538Z,24.26
2018-06-03T03:56:20.717Z,23.87
2018-06-03T03:56:51.926Z,23.57
2018-06-03T03:57:23.097Z,23.38
2018-06-03T03:57:54.314Z,23.23
2018-06-03T03:58:25.496Z,23.12
2018-06-03T03:58:56.717Z,23.07
2018-06-03T03:59:27.933Z,23.06
2018-06-03T03:59:59.163Z,23.13
2018-06-03T04:00:30.347Z,23.18
2018-06-03T04:01:01.515Z,23.22
2018-06-03T04:01:32.688Z,23.32
2018-06-03T04:02:03.876Z,23.47
2018-06-03T04:02:35.056Z,23.55
2018-06-03T04:03:06.234Z,23.62
2018-06-03T04:03:37.451Z,23.74
2018-06-03T04:04:08.666Z,23.79
2018-06-03T04:04:39.845Z,23.80
2018-06-03T04:05:11.020Z,23.82
2018-06-03T04:05:42.190Z,23.78
2018-06-03T04:06:13.414Z,23.68
2018-06-03T04:06:44.601Z,23.57
2018-06-03T04:07:15.868Z,23.42
2018-06-03T04:07:47.091Z,23.25
2018-06-03T04:08:18.290Z,23.07
2018-06-03T04:08:49.518Z,22.88
2018-06-03T04:09:20.692Z,22.76
2018-06-03T04:09:51.945Z,22.65
2018-06-03T04:10:23.131Z,22.56
2018-06-03T04:10:54.302Z,22.54
2018-06-03T04:11:25.480Z,22.68
2018-06-03T04:11:56.697Z,22.88
2018-06-03T04:12:27.879Z,23.06
2018-06-03T04:12:59.049Z,23.21
2018-06-03T04:13:30.230Z,23.36
2018-06-03T04:14:01.460Z,23.47
2018-06-03T04:14:32.628Z,23.53
2018-06-03T04:15:03.805Z,23.53
2018-06-03T04:15:35.027Z,23.45
2018-06-03T04:16:06.211Z,23.29
2018-06-03T04:16:37.435Z,23.08
2018-06-03T04:17:08.686Z,22.96
2018-06-03T04:17:39.868Z,22.88
2018-06-03T04:18:11.091Z,22.83
2018-06-03T04:18:42.277Z,22.88
2018-06-03T04:19:13.502Z,23.02
2018-06-03T04:19:44.721Z,23.16
2018-06-03T04:20:15.898Z,23.27
2018-06-03T04:20:47.070Z,23.32
2018-06-03T04:21:18.245Z,23.29
2018-06-03T04:21:49.473Z,23.12
2018-06-03T04:22:20.673Z,22.94
2018-06-03T04:22:51.846Z,22.79
2018-06-03T04:23:23.065Z,22.64
2018-06-03T04:23:54.240Z,22.55
2018-06-03T04:24:25.444Z,22.55
2018-06-03T04:24:56.613Z,22.60
2018-06-03T04:25:27.788Z,22.74
2018-06-03T04:25:59.018Z,22.95
2018-06-03T04:26:30.196Z,23.16
2018-06-03T04:27:01.462Z,23.43
2018-06-03T04:27:32.677Z,23.71
2018-06-03T04:28:03.876Z,23.99
2018-06-03T04:28:35.043Z,24.18
2018-06-03T04:29:06.212Z,24.31
2018-06-03T04:29:37.393Z,24.34
2018-06-03T04:30:08.578Z,24.19
2018-06-03T04:30:39.753Z,23.99
2018-06-03T04:31:10.985Z,23.84
2018-06-03T04:31:42.172Z,23.66
2018-06-03T04:32:13.441Z,23.59
2018-06-03T04:32:44.638Z,23.58
2018-06-03T04:33:15.810Z,23.63
2018-06-03T04:33:47.034Z,23.75
2018-06-03T04:34:18.217Z,23.85
2018-06-03T04:34:49.381Z,24.08
2018-06-03T04:35:20.601Z,24.37
2018-06-03T04:35:51.786Z,24.70
2018-06-03T04:36:22.957Z,24.96
2018-06-03T04:36:54.189Z,25.18
2018-06-03T04:37:25.421Z,25.35
2018-06-03T04:37:56.640Z,25.30
2018-06-03T04:38:27.810Z,25.23
2018-06-03T04:38:59.030Z,25.23
2018-06-03T04:39:30.217Z,25.17
2018-06-03T04:40:01.442Z,25.10
2018-06-03T04:40:32.620Z,24.83
2018-06-03T04:41:03.798Z,24.68
2018-06-03T04:41:34.966Z,24.51
2018-06-03T04:42:06.142Z,24.36
2018-06-03T04:42:37.365Z,24.15
2018-06-03T04:43:08.589Z,23.97
2018-06-03T04:43:39.764Z,23.81
2018-06-03T04:44:10.938Z,23.68
2018-06-03T04:44:42.164Z,23.53
2018-06-03T04:45:13.350Z,23.37
2018-06-03T04:45:44.517Z,23.29
2018-06-03T04:46:15.769Z,23.19
2018-06-03T04:46:46.957Z,23.15
2018-06-03T04:47:18.122Z,23.17
2018-06-03T04:47:49.328Z,23.13
2018-06-03T04:48:20.502Z,23.06
2018-06-03T04:48:51.720Z,23.12
2018-06-03T04:49:22.902Z,23.19
2018-06-03T04:49:54.081Z,23.20
2018-06-03T04:50:25.306Z,23.36
2018-06-03T04:50:56.534Z,23.50
2018-06-03T04:51:27.720Z,23.67
2018-06-03T04:51:58.900Z,23.72
2018-06-03T04:52:30.117Z,23.70
2018-06-03T04:53:01.345Z,23.57
2018-06-03T04:53:32.573Z,23.52
2018-06-03T04:54:03.854Z,23.49
2018-06-03T04:54:35.034Z,23.54
2018-06-03T04:55:06.211Z,23.65
2018-06-03T04:55:37.440Z,23.85
2018-06-03T04:56:08.673Z,24.15
2018-06-03T04:56:39.861Z,24.45
2018-06-03T04:57:11.101Z,24.78
2018-06-03T04:57:42.371Z,25.15
2018-06-03T04:58:13.549Z,25.53
2018-06-03T04:58:44.844Z,25.90
2018-06-03T04:59:16.037Z,26.24
2018-06-03T04:59:47.257Z,26.55
2018-06-03T05:00:18.440Z,26.87
2018-06-03T05:00:49.670Z,27.17
2018-06-03T05:01:20.852Z,27.41
2018-06-03T05:01:52.020Z,27.67
2018-06-03T05:02:23.188Z,27.81
2018-06-03T05:02:54.357Z,27.98
2018-06-03T05:03:25.538Z,28.08
2018-06-03T05:03:56.839Z,28.30
2018-06-03T05:04:28.118Z,28.41
2018-06-03T05:04:59.354Z,28.49
2018-06-03T05:05:30.586Z,28.59
2018-06-03T05:06:01.780Z,28.73
2018-06-03T05:06:32.956Z,28.83
2018-06-03T05:07:04.129Z,28.87
2018-06-03T05:07:35.311Z,29.09
2018-06-03T05:08:06.511Z,29.18
2018-06-03T05:08:37.738Z,29.08
2018-06-03T05:09:08.973Z,29.30
2018-06-03T05:09:40.209Z,29.44
2018-06-03T05:10:11.445Z,29.51
2018-06-03T05:10:42.625Z,29.48
2018-06-03T05:11:13.800Z,29.55
2018-06-03T05:11:45.039Z,29.66
2018-06-03T05:12:16.277Z,29.67
2018-06-03T05:12:47.646Z,29.70
2018-06-03T05:13:18.832Z,29.77
2018-06-03T05:13:50.015Z,29.72
2018-06-03T05:14:21.200Z,29.76
2018-06-03T05:14:52.395Z,29.87
2018-06-03T05:15:23.616Z,29.80
2018-06-03T05:15:54.850Z,29.63
2018-06-03T05:16:26.081Z,29.59
2018-06-03T05:16:57.269Z,29.69
2018-06-03T05:17:28.498Z,29.87
2018-06-03T05:17:59.691Z,30.05
2018-06-03T05:18:30.922Z,30.29
2018-06-03T05:19:02.113Z,30.45
2018-06-03T05:19:33.285Z,30.58
2018-06-03T05:20:04.534Z,30.76
2018-06-03T05:20:35.780Z,30.93
2018-06-03T05:21:06.968Z,30.98
2018-06-03T05:21:38.143Z,30.97
2018-06-03T05:22:09.316Z,31.07
2018-06-03T05:22:40.493Z,31.03
2018-06-03T05:23:12.289Z,30.77
2018-06-03T05:23:43.472Z,30.56
2018-06-03T05:24:14.697Z,30.51
2018-06-03T05:24:45.892Z,30.55
2018-06-03T05:25:17.116Z,30.52
2018-06-03T05:25:48.305Z,30.36
2018-06-03T05:26:19.582Z,30.20
2018-06-03T05:26:50.828Z,30.06
2018-06-03T05:27:22.033Z,29.91
2018-06-03T05:27:53.298Z,29.64
2018-06-03T05:28:24.484Z,29.79
2018-06-03T05:28:55.665Z,29.64
2018-06-03T05:29:26.845Z,29.67
2018-06-03T05:29:58.076Z,29.52
2018-06-03T05:30:29.256Z,29.47
2018-06-03T05:31:00.489Z,29.48
2018-06-03T05:31:31.791Z,29.68
2018-06-03T05:32:03.029Z,29.83
2018-06-03T05:32:34.227Z,29.85
2018-06-03T05:33:05.459Z,29.82
2018-06-03T05:33:36.657Z,29.82
2018-06-03T05:34:07.836Z,29.85
2018-06-03T05:34:39.013Z,29.79
2018-06-03T05:35:10.248Z,29.84
2018-06-03T05:35:41.433Z,29.86
2018-06-03T05:36:12.657Z,29.92
2018-06-03T05:36:43.939Z,29.94
2018-06-03T05:37:15.120Z,29.82
2018-06-03T05:37:46.296Z,29.69
2018-06-03T05:38:17.522Z,29.55
2018-06-03T05:38:48.770Z,29.35
2018-06-03T05:39:19.960Z,29.03
2018-06-03T05:39:51.189Z,28.95
2018-06-03T05:40:22.369Z,28.90
2018-06-03T05:40:53.581Z,28.68
2018-06-03T05:41:24.761Z,28.57
2018-06-03T05:41:55.939Z,28.49
2018-06-03T05:42:27.144Z,28.31
2018-06-03T05:42:58.328Z,28.09
2018-06-03T05:43:29.510Z,27.87
2018-06-03T05:44:00.738Z,27.73
2018-06-03T05:44:31.956Z,27.74
2018-06-03T05:45:03.182Z,27.77
2018-06-03T05:45:34.429Z,27.63
2018-06-03T05:46:05.617Z,27.59
2018-06-03T05:46:36.873Z,27.58
2018-06-03T05:47:08.053Z,27.51
2018-06-03T05:47:39.235Z,27.47
2018-06-03T05:48:10.449Z,27.42
2018-06-03T05:48:41.677Z,27.40
2018-06-03T05:49:12.866Z,27.41
2018-06-03T05:49:44.100Z,27.37
2018-06-03T05:50:15.301Z,27.39
2018-06-03T05:50:46.479Z,27.24
2018-06-03T05:51:17.657Z,27.20
2018-06-03T05:51:48.838Z,27.12
2018-06-03T05:52:20.023Z,27.07
2018-06-03T05:52:51.198Z,27.10
2018-06-03T05:53:22.466Z,27.10
2018-06-03T05:53:53.661Z,27.08
2018-06-03T05:54:24.840Z,27.08
2018-06-03T05:54:56.070Z,27.01
2018-06-03T05:55:27.267Z,26.80
2018-06-03T05:55:58.448Z,26.70
2018-06-03T05:56:29.681Z,26.54
2018-06-03T05:57:00.860Z,26.37
2018-06-03T05:57:32.033Z,26.22
2018-06-03T05:58:03.208Z,26.25
2018-06-03T05:58:34.429Z,26.32
2018-06-03T05:59:05.615Z,26.32
2018-06-03T05:59:36.845Z,26.29
2018-06-03T06:00:08.028Z,26.28
2018-06-03T06:00:39.205Z,26.20
2018-06-03T06:01:10.378Z,26.24
2018-06-03T06:01:41.549Z,26.26
2018-06-03T06:02:12.787Z,26.27
2018-06-03T06:02:44.039Z,26.31
2018-06-03T06:03:15.232Z,26.22
2018-06-03T06:03:46.450Z,26.28
2018-06-03T06:04:17.628Z,26.31
2018-06-03T06:04:48.857Z,26.28
2018-06-03T06:05:20.098Z,26.27
2018-06-03T06:05:51.293Z,26.31
2018-06-03T06:06:22.508Z,26.36
2018-06-03T06:06:53.734Z,26.38
2018-06-03T06:07:24.917Z,26.48
2018-06-03T06:07:56.099Z,26.57
2018-06-03T06:08:27.365Z,26.59
2018-06-03T06:08:58.601Z,26.54
2018-06-03T06:09:29.762Z,26.46
2018-06-03T06:10:00.962Z,26.39
2018-06-03T06:10:32.140Z,26.33
2018-06-03T06:11:03.333Z,26.26
2018-06-03T06:11:34.560Z,26.16
2018-06-03T06:12:05.752Z,26.00
2018-06-03T06:12:36.932Z,25.83
2018-06-03T06:13:08.101Z,25.74
2018-06-03T06:13:39.277Z,25.63
2018-06-03T06:14:10.444Z,25.56
2018-06-03T06:14:41.626Z,25.49
2018-06-03T06:15:12.853Z,25.49
2018-06-03T06:15:44.081Z,25.42
2018-06-03T06:16:15.317Z,25.45
2018-06-03T06:16:46.493Z,25.43
2018-06-03T06:17:17.676Z,25.45
2018-06-03T06:17:48.847Z,25.52
2018-06-03T06:18:20.029Z,25.52
2018-06-03T06:18:51.197Z,25.43
2018-06-03T06:19:22.422Z,25.44
2018-06-03T06:19:53.613Z,25.42
2018-06-03T06:20:24.836Z,25.43
2018-06-03T06:20:56.069Z,25.51
2018-06-03T06:21:27.252Z,25.50
2018-06-03T06:21:58.481Z,25.50
2018-06-03T06:22:29.674Z,25.52
2018-06-03T06:23:00.905Z,25.57
2018-06-03T06:23:32.088Z,25.60
2018-06-03T06:24:03.314Z,25.59
2018-06-03T06:24:34.501Z,25.63
2018-06-03T06:25:05.725Z,25.72
2018-06-03T06:25:36.945Z,25.76
2018-06-03T06:26:08.125Z,25.76
2018-06-03T06:26:39.390Z,25.77
2018-06-03T06:27:10.638Z,25.82
2018-06-03T06:27:41.865Z,25.75
2018-06-03T06:28:13.056Z,25.63
2018-06-03T06:28:44.236Z,25.60
2018-06-03T06:29:15.404Z,25.49
2018-06-03T06:29:46.581Z,25.45
2018-06-03T06:30:17.813Z,25.45
2018-06-03T06:30:49.005Z,25.42
2018-06-03T06:31:20.272Z,25.46
2018-06-03T06:31:51.456Z,25.47
2018-06-03T06:32:22.637Z,25.48
2018-06-03T06:32:53.868Z,25.54
2018-06-03T06:33:25.037Z,25.56
2018-06-03T06:33:56.227Z,25.50
2018-06-03T06:34:27.453Z,25.44
2018-06-03T06:34:58.633Z,25.45
2018-06-03T06:35:29.805Z,25.41
2018-06-03T06:36:01.038Z,25.41
2018-06-03T06:36:32.227Z,25.34
2018-06-03T06:37:03.402Z,25.33
2018-06-03T06:37:34.636Z,25.34
2018-06-03T06:38:06.021Z,25.32
2018-06-03T06:38:37.224Z,25.30
2018-06-03T06:39:08.453Z,25.29
2018-06-03T06:39:39.642Z,25.29
2018-06-03T06:40:10.865Z,25.35
2018-06-03T06:40:42.106Z,25.45
2018-06-03T06:41:13.285Z,25.57
2018-06-03T06:41:44.500Z,25.56